createdAt,value
2019-01-14T06:42:15.887Z,3
2019-01-14T06:47:46.241Z,7
2019-01-14T06:50:16.385Z,10
2019-01-14T06:52:16.524Z,13
2019-01-14T06:53:46.575Z,17
2019-01-14T06:54:46.646Z,20
2019-01-14T06:55:46.709Z,23
2019-01-14T06:56:16.743Z,27
2019-01-14T06:57:16.798Z,30
2019-01-14T06:58:16.857Z,33
2019-01-14T06:58:46.877Z,37
2019-01-14T06:59:46.983Z,40
2019-01-14T07:00:16.963Z,43
2019-01-14T07:00:47.002Z,47
2019-01-14T07:01:17.023Z,50
2019-01-14T07:01:47.185Z,53
2019-01-14T07:02:17.114Z,57
2019-01-14T07:02:47.151Z,60
2019-01-14T07:03:17.137Z,63
2019-01-14T07:03:47.228Z,67
2019-01-14T07:04:17.227Z,73
2019-01-14T07:04:47.289Z,77
2019-01-14T07:05:17.322Z,83
2019-01-14T07:05:47.308Z,90
2019-01-14T07:06:17.353Z,93
2019-01-14T07:06:47.417Z,100
2019-01-14T07:07:17.448Z,107
2019-01-14T07:07:47.476Z,117
2019-01-14T07:08:17.465Z,123
2019-01-14T07:08:47.551Z,133
2019-01-14T07:09:17.583Z,143
2019-01-14T07:09:47.600Z,153
2019-01-14T07:10:17.603Z,163
2019-01-14T07:10:47.670Z,173
2019-01-14T07:11:17.726Z,177
2019-01-14T07:11:47.723Z,180
2019-01-14T07:12:17.715Z,183
2019-01-14T07:12:47.739Z,193
2019-01-14T07:13:17.784Z,200
2019-01-14T07:13:47.844Z,207
2019-01-14T07:14:17.822Z,217
2019-01-14T07:14:47.909Z,223
2019-01-14T07:15:17.951Z,230
2019-01-14T07:15:47.922Z,227
2019-01-14T07:16:18.023Z,213
2019-01-14T07:16:48.032Z,217
2019-01-14T07:17:18.087Z,237
2019-01-14T07:17:48.259Z,250
2019-01-14T07:18:18.127Z,257
2019-01-14T07:18:48.145Z,270
2019-01-14T07:19:18.152Z,273
2019-01-14T07:20:18.224Z,267
2019-01-14T07:20:48.266Z,263
2019-01-14T07:21:18.337Z,277
2019-01-14T07:21:48.333Z,293
2019-01-14T07:22:18.394Z,310
2019-01-14T07:22:48.364Z,313
2019-01-14T07:23:18.436Z,317
2019-01-14T07:23:48.460Z,327
2019-01-14T07:24:18.496Z,333
2019-01-14T07:25:18.591Z,340
2019-01-14T07:25:48.595Z,367
2019-01-14T07:26:18.639Z,387
2019-01-14T07:26:48.634Z,390
2019-01-14T07:27:18.682Z,397
2019-01-14T07:28:18.763Z,380
2019-01-14T07:28:48.765Z,377
2019-01-14T07:29:18.801Z,397
2019-01-14T07:29:48.798Z,433
2019-01-14T07:30:18.855Z,463
2019-01-14T07:30:48.882Z,500
2019-01-14T07:31:18.917Z,540
2019-01-14T07:31:48.959Z,577
2019-01-14T07:32:18.969Z,607
2019-01-14T07:32:48.968Z,623
2019-01-14T07:33:19.038Z,630
2019-01-14T07:33:49.064Z,633
2019-01-14T07:34:19.104Z,643
2019-01-14T07:34:49.147Z,663
2019-01-14T07:35:19.151Z,687
2019-01-14T07:35:49.193Z,737
2019-01-14T07:36:19.190Z,783
2019-01-14T07:36:49.281Z,807
2019-01-14T07:37:19.293Z,820
2019-01-14T07:37:49.331Z,833
2019-01-14T07:38:19.391Z,863
2019-01-14T07:38:49.391Z,903
2019-01-14T07:39:19.417Z,940
2019-01-14T07:39:49.422Z,930
2019-01-14T07:40:19.441Z,910
2019-01-14T07:40:49.508Z,937
2019-01-14T07:41:19.492Z,997
2019-01-14T07:41:49.535Z,1040
2019-01-14T07:42:19.547Z,1050
2019-01-14T07:42:49.604Z,1037
2019-01-14T07:43:19.646Z,1020
2019-01-14T07:43:49.646Z,1003
2019-01-14T07:44:19.678Z,1010
2019-01-14T07:44:49.740Z,1030
2019-01-14T07:45:19.757Z,1043
2019-01-14T07:45:50.108Z,1030
2019-01-14T07:46:19.811Z,993
2019-01-14T07:46:49.827Z,960
2019-01-14T07:47:19.868Z,950
2019-01-14T07:47:49.915Z,943
2019-01-14T07:48:19.915Z,917
2019-01-14T07:48:49.995Z,897
2019-01-14T07:49:19.968Z,933
2019-01-14T07:49:50.019Z,1017
2019-01-14T07:50:20.031Z,1120
2019-01-14T07:50:50.102Z,1183
2019-01-14T07:51:20.092Z,1210
2019-01-14T07:51:50.180Z,1193
2019-01-14T07:52:20.191Z,1267
2019-01-14T07:52:50.238Z,1400
2019-01-14T07:53:20.276Z,1567
2019-01-14T07:53:50.294Z,1743
2019-01-14T07:54:20.316Z,1913
2019-01-14T07:54:50.360Z,2050
2019-01-14T07:55:20.339Z,2180
2019-01-14T07:55:50.381Z,2280
2019-01-14T07:56:20.393Z,2353
2019-01-14T07:56:50.485Z,2403
2019-01-14T07:57:20.458Z,2447
2019-01-14T07:57:50.539Z,2463
2019-01-14T07:58:20.557Z,2473
2019-01-14T07:58:50.605Z,2500
2019-01-14T07:59:20.600Z,2550
2019-01-14T07:59:50.672Z,2620
2019-01-14T08:00:20.641Z,2707
2019-01-14T08:00:50.721Z,2787
2019-01-14T08:01:20.755Z,2880
2019-01-14T08:01:50.794Z,2957
2019-01-14T08:02:20.778Z,2990
2019-01-14T08:02:50.911Z,3023
2019-01-14T08:03:20.861Z,3027
2019-01-14T08:03:50.916Z,3007
2019-01-14T08:04:20.893Z,2970
2019-01-14T08:04:50.993Z,2917
2019-01-14T08:05:20.975Z,2863
2019-01-14T08:05:50.999Z,2817
2019-01-14T08:06:21.017Z,2753
2019-01-14T08:06:51.094Z,2707
2019-01-14T08:07:21.128Z,2677
2019-01-14T08:07:51.159Z,2673
2019-01-14T08:08:21.159Z,2770
2019-01-14T08:08:51.227Z,2897
2019-01-14T08:09:21.245Z,3000
2019-01-14T08:09:51.259Z,3043
2019-01-14T08:10:21.326Z,3080
2019-01-14T08:10:51.359Z,3083
2019-01-14T08:11:21.358Z,3063
2019-01-14T08:11:51.401Z,3070
2019-01-14T08:12:21.434Z,3117
2019-01-14T08:12:51.474Z,3190
2019-01-14T08:13:21.448Z,3283
2019-01-14T08:13:51.528Z,3383
2019-01-14T08:14:21.542Z,3433
2019-01-14T08:14:51.574Z,3473
2019-01-14T08:15:21.608Z,3550
2019-01-14T08:15:51.630Z,3610
2019-01-14T08:16:21.664Z,3653
2019-01-14T08:16:51.703Z,3707
2019-01-14T08:17:21.708Z,3787
2019-01-14T08:17:51.777Z,3887
2019-01-14T08:18:21.779Z,3980
2019-01-14T08:18:51.830Z,4013
2019-01-14T08:19:51.875Z,4003
2019-01-14T08:20:21.909Z,4020
2019-01-14T08:20:51.999Z,4073
2019-01-14T08:21:22.024Z,4143
2019-01-14T08:21:51.976Z,4200
2019-01-14T08:22:22.051Z,4267
2019-01-14T08:22:52.069Z,4333
2019-01-14T08:23:22.128Z,4480
2019-01-14T08:23:52.146Z,4673
2019-01-14T08:24:22.151Z,4880
2019-01-14T08:24:52.203Z,5040
2019-01-14T08:25:22.268Z,5210
2019-01-14T08:25:52.265Z,5327
2019-01-14T08:26:22.300Z,5320
2019-01-14T08:26:52.324Z,5240
2019-01-14T08:27:22.301Z,5177
2019-01-14T08:27:52.392Z,5230
2019-01-14T08:28:22.448Z,5363
2019-01-14T08:28:52.457Z,5463
2019-01-14T08:29:22.456Z,5453
2019-01-14T08:29:52.534Z,5443
2019-01-14T08:30:22.505Z,5423
2019-01-14T08:30:52.575Z,5337
2019-01-14T08:31:22.557Z,5133
2019-01-14T08:31:52.590Z,5013
2019-01-14T08:32:22.618Z,5133
2019-01-14T08:32:52.817Z,5267
2019-01-14T08:33:22.697Z,5197
2019-01-14T08:33:52.729Z,5077
2019-01-14T08:34:22.752Z,4957
2019-01-14T08:34:52.799Z,4937
2019-01-14T08:35:22.824Z,4910
2019-01-14T08:35:52.839Z,4800
2019-01-14T08:36:22.888Z,4830
2019-01-14T08:36:52.900Z,5080
2019-01-14T08:37:22.920Z,5447
2019-01-14T08:37:52.962Z,5713
2019-01-14T08:38:22.978Z,5853
2019-01-14T08:38:53.019Z,5950
2019-01-14T08:39:23.106Z,5803
2019-01-14T08:39:53.082Z,5547
2019-01-14T08:40:23.104Z,5247
2019-01-14T08:40:53.182Z,5030
2019-01-14T08:41:23.156Z,5033
2019-01-14T08:41:53.277Z,5293
2019-01-14T08:42:23.258Z,5707
2019-01-14T08:42:53.312Z,6227
2019-01-14T08:43:23.344Z,6637
2019-01-14T08:43:53.373Z,6857
2019-01-14T08:44:23.373Z,6780
2019-01-14T08:44:53.442Z,6660
2019-01-14T08:45:23.451Z,6790
2019-01-14T08:45:53.491Z,6843
2019-01-14T08:46:23.500Z,6627
2019-01-14T08:46:53.579Z,6170
2019-01-14T08:47:23.582Z,5570
2019-01-14T08:47:53.611Z,4777
2019-01-14T08:48:23.672Z,4043
2019-01-14T08:48:53.695Z,3810
2019-01-14T08:49:23.744Z,4070
2019-01-14T08:49:53.744Z,4237
2019-01-14T08:50:23.768Z,4730
2019-01-14T08:50:53.774Z,5653
2019-01-14T08:51:23.823Z,6063
2019-01-14T08:51:53.859Z,6193
2019-01-14T08:52:23.891Z,6473
2019-01-14T08:52:53.929Z,6917
2019-01-14T08:53:23.896Z,7320
2019-01-14T08:53:54.002Z,7397
2019-01-14T08:54:24.012Z,7370
2019-01-14T08:54:54.045Z,7223
2019-01-14T08:55:24.088Z,6953
2019-01-14T08:55:54.105Z,6627
2019-01-14T08:56:24.198Z,6347
2019-01-14T08:56:54.170Z,6240
2019-01-14T08:57:24.193Z,6243
2019-01-14T08:57:54.810Z,6193
2019-01-14T08:58:24.275Z,6050
2019-01-14T08:58:54.289Z,5963
2019-01-14T08:59:24.312Z,5973
2019-01-14T08:59:54.356Z,5980
2019-01-14T09:00:24.386Z,5933
2019-01-14T09:00:54.445Z,5897
2019-01-14T09:01:24.434Z,5850
2019-01-14T09:01:54.507Z,5717
2019-01-14T09:02:24.520Z,5513
2019-01-14T09:02:54.571Z,5400
2019-01-14T09:03:24.536Z,5337
2019-01-14T09:03:54.615Z,5240
2019-01-14T09:04:24.627Z,5210
2019-01-14T09:04:54.662Z,5230
2019-01-14T09:05:24.691Z,5330
2019-01-14T09:05:54.799Z,5453
2019-01-14T09:06:24.790Z,5647
2019-01-14T09:06:54.801Z,5843
2019-01-14T09:07:24.806Z,6043
2019-01-14T09:07:54.852Z,6183
2019-01-14T09:08:28.587Z,6340
2019-01-14T09:08:54.928Z,6493
2019-01-14T09:09:24.920Z,6650
2019-01-14T09:09:54.970Z,6720
2019-01-14T09:10:24.995Z,6817
2019-01-14T09:10:54.983Z,7000
2019-01-14T09:11:25.051Z,7227
2019-01-14T09:11:55.093Z,7357
2019-01-14T09:12:25.103Z,7573
2019-01-14T09:12:55.164Z,7913
2019-01-14T09:13:25.155Z,8210
2019-01-14T09:13:55.219Z,8313
2019-01-14T09:14:25.235Z,8230
2019-01-14T09:14:55.487Z,8147
2019-01-14T09:15:25.255Z,8353
2019-01-14T09:15:55.358Z,7810
2019-01-14T09:16:25.359Z,8147
2019-01-14T09:16:55.415Z,8100
2019-01-14T09:17:25.433Z,8867
2019-01-14T09:18:02.352Z,9990
2019-01-14T09:18:25.478Z,11590
2019-01-14T09:18:55.519Z,13133
2019-01-14T09:19:25.528Z,16180
2019-01-14T09:19:55.548Z,18340
2019-01-14T09:20:25.595Z,19277
2019-01-14T09:20:55.610Z,19740
2019-01-14T09:21:25.665Z,21007
2019-01-14T09:21:55.701Z,21147
2019-01-14T09:22:25.724Z,21173
2019-01-14T09:22:55.748Z,21203
2019-01-14T09:23:25.776Z,19173
2019-01-14T09:23:55.786Z,17273
2019-01-14T09:24:25.804Z,15467
2019-01-14T09:24:55.849Z,12777
2019-01-14T09:25:25.869Z,10230
2019-01-14T09:25:55.914Z,9680
2019-01-14T09:26:25.961Z,10580
2019-01-14T09:26:56.009Z,11343
2019-01-14T09:27:26.007Z,12173
2019-01-14T09:27:56.035Z,13143
2019-01-14T09:28:26.119Z,12667
2019-01-14T09:28:56.131Z,11413
2019-01-14T09:29:26.168Z,11000
2019-01-14T09:29:56.203Z,10277
2019-01-14T09:30:26.227Z,10587
2019-01-14T09:30:56.238Z,11607
2019-01-14T09:31:26.270Z,12573
2019-01-14T09:31:56.282Z,12830
2019-01-14T09:32:26.327Z,11997
2019-01-14T09:32:56.374Z,11027
2019-01-14T09:33:26.378Z,10670
2019-01-14T09:33:56.451Z,11757
2019-01-14T09:34:26.457Z,13533
2019-01-14T09:34:56.532Z,14430
2019-01-14T09:35:26.514Z,14613
2019-01-14T09:35:56.563Z,14343
2019-01-14T09:36:26.617Z,14417
2019-01-14T09:36:56.635Z,14357
2019-01-14T09:37:26.668Z,14410
2019-01-14T09:37:56.701Z,14510
2019-01-14T09:38:26.686Z,14813
2019-01-14T09:38:56.747Z,14777
2019-01-14T09:39:26.751Z,14527
2019-01-14T09:39:56.814Z,14060
2019-01-14T09:40:26.841Z,13857
2019-01-14T09:40:56.876Z,14097
2019-01-14T09:41:26.889Z,13193
2019-01-14T09:41:56.902Z,13297
2019-01-14T09:42:28.029Z,13183
2019-01-14T09:42:57.006Z,13303
2019-01-14T09:43:26.973Z,11760
2019-01-14T09:43:57.060Z,11470
2019-01-14T09:44:27.053Z,11957
2019-01-14T09:44:57.142Z,12677
2019-01-14T09:45:27.179Z,12903
2019-01-14T09:45:57.178Z,13350
2019-01-14T09:46:27.221Z,14513
2019-01-14T09:46:57.239Z,15813
2019-01-14T09:47:27.283Z,15510
2019-01-14T09:47:57.310Z,15780
2019-01-14T09:48:27.381Z,15497
2019-01-14T09:48:57.365Z,17060
2019-01-14T09:49:27.428Z,15150
2019-01-14T09:49:57.425Z,15967
2019-01-14T09:50:27.402Z,17070
2019-01-14T09:50:57.492Z,16673
2019-01-14T09:51:27.530Z,17070
2019-01-14T09:51:57.550Z,14997
2019-01-14T09:52:28.459Z,13427
2019-01-14T09:52:57.627Z,11740
2019-01-14T09:53:27.684Z,9593
2019-01-14T09:53:58.323Z,7787
2019-01-14T09:54:27.716Z,7517
2019-01-14T09:54:57.732Z,6720
2019-01-14T09:55:27.751Z,5843
2019-01-14T09:55:57.805Z,6130
2019-01-14T09:56:27.814Z,7447
2019-01-14T09:56:57.858Z,9173
2019-01-14T09:57:27.862Z,11140
2019-01-14T09:57:57.925Z,10157
2019-01-14T09:58:27.895Z,9327
2019-01-14T09:58:57.974Z,7627
2019-01-14T09:59:28.013Z,6973
2019-01-14T09:59:58.041Z,8633
2019-01-14T10:00:28.076Z,11387
2019-01-14T10:00:58.061Z,15527
2019-01-14T10:01:28.142Z,16430
2019-01-14T10:01:58.168Z,13707
2019-01-14T10:02:28.188Z,12147
2019-01-14T10:02:58.246Z,11807
2019-01-14T10:03:28.198Z,9940
2019-01-14T10:03:58.261Z,9173
2019-01-14T10:04:28.319Z,10277
2019-01-14T10:04:58.380Z,11320
2019-01-14T10:05:28.454Z,13363
2019-01-14T10:05:58.385Z,18473
2019-01-14T10:06:28.539Z,21990
2019-01-14T10:06:58.471Z,21450
2019-01-14T10:07:28.455Z,17497
2019-01-14T10:07:58.503Z,14527
2019-01-14T10:08:28.551Z,12660
2019-01-14T10:08:58.582Z,11223
2019-01-14T10:09:28.603Z,11647
2019-01-14T10:09:58.619Z,12403
2019-01-14T10:10:28.660Z,11077
2019-01-14T10:10:58.679Z,9563
2019-01-14T10:11:28.696Z,10300
2019-01-14T10:11:58.757Z,11710
2019-01-14T10:12:28.782Z,12040
2019-01-14T10:12:58.827Z,12843
2019-01-14T10:13:28.834Z,14087
2019-01-14T10:13:58.862Z,14477
2019-01-14T10:14:28.879Z,13187
2019-01-14T10:14:58.937Z,11710
2019-01-14T10:15:28.955Z,11023
2019-01-14T10:15:58.985Z,11053
2019-01-14T10:16:28.995Z,11417
2019-01-14T10:16:59.072Z,11940
2019-01-14T10:17:29.095Z,12033
2019-01-14T10:17:59.142Z,12170
2019-01-14T10:18:29.174Z,12003
2019-01-14T10:18:59.171Z,10667
2019-01-14T10:19:29.193Z,9587
2019-01-14T10:19:59.248Z,9907
2019-01-14T10:20:29.321Z,9980
2019-01-14T10:20:59.334Z,11123
2019-01-14T10:21:29.358Z,11763
2019-01-14T10:21:59.398Z,10637
2019-01-14T10:22:29.406Z,10103
2019-01-14T10:22:59.432Z,11333
2019-01-14T10:23:29.471Z,12490
2019-01-14T10:23:59.527Z,12670
2019-01-14T10:24:29.549Z,11480
2019-01-14T10:24:59.578Z,10493
2019-01-14T10:25:29.604Z,9450
2019-01-14T10:25:59.617Z,8337
2019-01-14T10:26:29.652Z,6297
2019-01-14T10:26:59.668Z,5560
2019-01-14T10:27:29.769Z,7363
2019-01-14T10:27:59.746Z,9160
2019-01-14T10:28:29.739Z,10253
2019-01-14T10:28:59.938Z,11133
2019-01-14T10:29:29.845Z,12100
2019-01-14T10:29:59.894Z,13120
2019-01-14T10:30:29.948Z,12977
2019-01-14T10:30:59.939Z,13180
2019-01-14T10:31:29.979Z,13560
2019-01-14T10:32:00.033Z,13347
2019-01-14T10:32:30.018Z,12713
2019-01-14T10:33:00.095Z,12073
2019-01-14T10:33:30.104Z,12143
2019-01-14T10:34:00.172Z,11543
2019-01-14T10:34:30.144Z,10490
2019-01-14T10:35:00.213Z,11287
2019-01-14T10:35:30.207Z,13000
2019-01-14T10:36:01.728Z,13447
2019-01-14T10:36:30.265Z,13573
2019-01-14T10:37:00.849Z,12963
2019-01-14T10:37:30.285Z,11433
2019-01-14T10:38:00.649Z,11540
2019-01-14T10:38:30.387Z,11860
2019-01-14T10:39:00.710Z,12013
2019-01-14T10:39:30.466Z,12200
2019-01-14T10:40:01.026Z,20340
2019-01-14T10:40:30.474Z,20087
2019-01-14T10:41:00.769Z,12403
2019-01-14T10:41:30.599Z,11980
2019-01-14T10:42:04.892Z,12223
2019-01-14T10:42:30.626Z,12967
2019-01-14T10:43:00.698Z,13660
2019-01-14T10:43:30.692Z,15523
2019-01-14T10:44:00.941Z,16480
2019-01-14T10:44:30.725Z,19570
2019-01-14T10:45:01.062Z,21973
2019-01-14T10:45:30.852Z,20260
2019-01-14T10:46:01.025Z,16323
2019-01-14T10:46:30.877Z,12813
2019-01-14T10:47:00.897Z,10760
2019-01-14T10:47:30.932Z,10360
2019-01-14T10:48:02.001Z,10880
2019-01-14T10:48:31.147Z,11597
2019-01-14T10:49:01.019Z,12157
2019-01-14T10:49:31.069Z,12527
2019-01-14T10:50:01.077Z,11447
2019-01-14T10:50:31.144Z,9140
2019-01-14T10:51:01.204Z,8050
2019-01-14T10:51:31.183Z,8407
2019-01-14T10:52:01.195Z,9103
2019-01-14T10:52:31.265Z,9597
2019-01-14T10:53:01.273Z,10280
2019-01-14T10:53:31.299Z,12570
2019-01-14T10:54:01.352Z,16553
2019-01-14T10:54:31.369Z,20787
2019-01-14T10:55:01.746Z,22230
2019-01-14T10:55:31.477Z,21803
2019-01-14T10:56:01.551Z,21660
2019-01-14T10:56:31.508Z,21463
2019-01-14T10:57:01.536Z,19873
2019-01-14T10:57:31.522Z,17630
2019-01-14T10:58:01.767Z,16877
2019-01-14T10:58:31.612Z,17140
2019-01-14T10:59:01.637Z,19207
2019-01-14T10:59:31.643Z,19887
2019-01-14T11:00:01.968Z,16977
2019-01-14T11:00:31.712Z,13483
2019-01-14T11:01:01.874Z,12220
2019-01-14T11:01:31.780Z,12653
2019-01-14T11:02:01.861Z,14263
2019-01-14T11:02:31.846Z,14170
2019-01-14T11:03:01.891Z,11340
2019-01-14T11:03:31.904Z,8080
2019-01-14T11:04:01.932Z,6400
2019-01-14T11:04:31.966Z,5927
2019-01-14T11:05:01.997Z,6080
2019-01-14T11:05:32.017Z,6593
2019-01-14T11:06:02.061Z,7070
2019-01-14T11:06:32.123Z,8047
2019-01-14T11:07:02.124Z,8113
2019-01-14T11:07:32.612Z,7790
2019-01-14T11:08:02.225Z,7123
2019-01-14T11:08:32.215Z,6760
2019-01-14T11:09:05.973Z,7840
2019-01-14T11:09:32.269Z,8947
2019-01-14T11:10:02.333Z,9313
2019-01-14T11:10:32.400Z,10107
2019-01-14T11:11:02.365Z,13430
2019-01-14T11:11:32.455Z,15453
2019-01-14T11:12:02.476Z,14130
2019-01-14T11:12:32.498Z,13157
2019-01-14T11:13:02.533Z,13040
2019-01-14T11:13:32.557Z,14713
2019-01-14T11:14:02.573Z,16860
2019-01-14T11:14:32.595Z,17037
2019-01-14T11:15:02.998Z,15217
2019-01-14T11:15:32.683Z,16573
2019-01-14T11:16:02.676Z,18247
2019-01-14T11:16:32.757Z,18480
2019-01-14T11:17:02.780Z,15853
2019-01-14T11:17:32.811Z,12013
2019-01-14T11:18:02.829Z,11360
2019-01-14T11:18:32.904Z,14690
2019-01-14T11:19:02.914Z,15310
2019-01-14T11:19:32.919Z,17067
2019-01-14T11:20:02.941Z,16333
2019-01-14T11:20:32.996Z,14050
2019-01-14T11:21:03.021Z,14550
2019-01-14T11:21:33.054Z,16923
2019-01-14T11:22:03.077Z,18133
2019-01-14T11:22:33.090Z,18823
2019-01-14T11:23:03.139Z,18743
2019-01-14T11:23:33.171Z,18070
2019-01-14T11:24:03.211Z,17210
2019-01-14T11:24:33.242Z,17423
2019-01-14T11:25:03.301Z,18983
2019-01-14T11:25:33.239Z,18960
2019-01-14T11:26:03.324Z,16967
2019-01-14T11:26:33.379Z,15123
2019-01-14T11:27:03.402Z,12723
2019-01-14T11:27:33.415Z,12907
2019-01-14T11:28:03.455Z,12950
2019-01-14T11:28:33.436Z,14113
2019-01-14T11:29:03.546Z,14230
2019-01-14T11:29:33.491Z,11980
2019-01-14T11:30:03.626Z,10037
2019-01-14T11:30:33.595Z,8960
2019-01-14T11:31:03.629Z,9493
2019-01-14T11:31:33.691Z,10187
2019-01-14T11:32:03.700Z,10990
2019-01-14T11:32:33.671Z,12883
2019-01-14T11:33:03.762Z,15233
2019-01-14T11:33:33.831Z,15027
2019-01-14T11:34:03.820Z,16593
2019-01-14T11:34:33.839Z,17670
2019-01-14T11:35:03.901Z,15080
2019-01-14T11:35:33.913Z,12913
2019-01-14T11:36:03.903Z,11787
2019-01-14T11:36:33.967Z,10230
2019-01-14T11:37:03.960Z,8960
2019-01-14T11:37:34.023Z,8063
2019-01-14T11:38:04.065Z,7467
2019-01-14T11:38:34.081Z,6740
2019-01-14T11:39:05.092Z,6233
2019-01-14T11:39:34.159Z,6090
2019-01-14T11:40:04.257Z,5580
2019-01-14T11:40:34.219Z,4810
2019-01-14T11:41:04.246Z,4097
2019-01-14T11:41:34.294Z,3893
2019-01-14T11:42:04.349Z,4183
2019-01-14T11:42:34.334Z,4137
2019-01-14T11:43:04.345Z,4077
2019-01-14T11:43:34.389Z,3933
2019-01-14T11:44:04.401Z,3697
2019-01-14T11:44:34.496Z,3533
2019-01-14T11:45:04.526Z,3380
2019-01-14T11:45:34.474Z,3267
2019-01-14T11:46:04.574Z,3013
2019-01-14T11:46:34.607Z,2843
2019-01-14T11:47:04.593Z,2823
2019-01-14T11:47:34.646Z,3313
2019-01-14T11:48:04.668Z,4677
2019-01-14T11:48:34.674Z,6417
2019-01-14T11:49:04.742Z,8283
2019-01-14T11:49:34.712Z,10080
2019-01-14T11:50:04.850Z,12060
2019-01-14T11:50:34.791Z,13833
2019-01-14T11:51:04.850Z,16343
2019-01-14T11:51:34.836Z,17663
2019-01-14T11:52:04.885Z,18470
2019-01-14T11:52:34.904Z,19737
2019-01-14T11:53:04.944Z,20523
2019-01-14T11:53:34.964Z,19063
2019-01-14T11:54:05.006Z,15980
2019-01-14T11:54:35.059Z,13107
2019-01-14T11:55:05.108Z,11783
2019-01-14T11:55:35.127Z,11727
2019-01-14T11:56:05.146Z,11520
2019-01-14T11:56:35.195Z,11003
2019-01-14T11:57:05.274Z,10783
2019-01-14T11:57:35.243Z,11930
2019-01-14T11:58:05.305Z,13080
2019-01-14T11:58:35.297Z,12843
2019-01-14T11:59:05.338Z,11733
2019-01-14T11:59:35.364Z,10523
2019-01-14T12:00:05.457Z,10037
2019-01-14T12:00:36.648Z,9900
2019-01-14T12:01:05.479Z,8423
2019-01-14T12:01:35.491Z,6390
2019-01-14T12:02:05.561Z,5407
2019-01-14T12:02:39.438Z,4893
2019-01-14T12:03:05.599Z,4660
2019-01-14T12:03:35.599Z,4153
2019-01-14T12:04:05.667Z,3843
2019-01-14T12:04:35.720Z,4363
2019-01-14T12:05:05.792Z,4467
2019-01-14T12:05:35.733Z,5280
2019-01-14T12:06:05.802Z,5517
2019-01-14T12:06:35.809Z,6050
2019-01-14T12:07:05.855Z,6717
2019-01-14T12:07:35.854Z,5960
2019-01-14T12:08:05.906Z,4537
2019-01-14T12:08:35.917Z,3787
2019-01-14T12:09:12.145Z,2983
2019-01-14T12:09:35.981Z,2600
2019-01-14T12:10:06.084Z,2473
2019-01-14T12:10:36.037Z,1987
2019-01-14T12:11:06.091Z,1940
2019-01-14T12:11:36.100Z,2090
2019-01-14T12:12:06.156Z,2383
2019-01-14T12:12:36.159Z,1980
2019-01-14T12:13:06.224Z,1643
2019-01-14T12:13:36.256Z,1843
2019-01-14T12:14:06.273Z,2007
2019-01-14T12:14:36.324Z,2080
2019-01-14T12:15:06.368Z,2753
2019-01-14T12:15:36.355Z,3483
2019-01-14T12:16:06.409Z,4133
2019-01-14T12:16:36.416Z,4750
2019-01-14T12:17:06.460Z,5260
2019-01-14T12:17:36.479Z,5330
2019-01-14T12:18:06.499Z,5377
2019-01-14T12:18:36.531Z,5393
2019-01-14T12:19:06.600Z,5543
2019-01-14T12:19:36.585Z,5937
2019-01-14T12:20:06.660Z,6237
2019-01-14T12:20:36.708Z,6570
2019-01-14T12:21:06.715Z,7323
2019-01-14T12:21:36.794Z,8340
2019-01-14T12:22:06.768Z,8600
2019-01-14T12:22:36.764Z,9237
2019-01-14T12:23:06.796Z,9693
2019-01-14T12:23:36.824Z,10253
2019-01-14T12:24:06.892Z,10600
2019-01-14T12:24:36.864Z,10703
2019-01-14T12:25:07.030Z,10340
2019-01-14T12:25:37.637Z,9900
2019-01-14T12:26:07.032Z,8880
2019-01-14T12:26:37.007Z,8113
2019-01-14T12:27:07.074Z,8033
2019-01-14T12:27:37.124Z,7803
2019-01-14T12:28:07.146Z,7407
2019-01-14T12:28:37.215Z,7983
2019-01-14T12:29:07.198Z,8277
2019-01-14T12:29:37.270Z,8063
2019-01-14T12:30:07.323Z,7367
2019-01-14T12:30:37.292Z,7653
2019-01-14T12:31:07.340Z,7737
2019-01-14T12:31:37.372Z,7720
2019-01-14T12:32:07.395Z,7987
2019-01-14T12:32:37.400Z,8880
2019-01-14T12:33:07.440Z,11903
2019-01-14T12:33:37.462Z,17633
2019-01-14T12:34:07.540Z,23553
2019-01-14T12:34:37.487Z,26677
2019-01-14T12:35:07.560Z,27683
2019-01-14T12:35:37.572Z,24283
2019-01-14T12:36:07.612Z,17970
2019-01-14T12:36:37.629Z,12130
2019-01-14T12:37:07.673Z,9113
2019-01-14T12:37:37.671Z,8033
2019-01-14T12:38:07.740Z,7153
2019-01-14T12:38:37.745Z,6673
2019-01-14T12:39:07.768Z,7103
2019-01-14T12:39:37.805Z,7787
2019-01-14T12:40:07.844Z,9887
2019-01-14T12:40:37.853Z,9780
2019-01-14T12:41:07.908Z,10000
2019-01-14T12:41:37.912Z,10187
2019-01-14T12:42:07.955Z,10437
2019-01-14T12:42:38.016Z,10750
2019-01-14T12:43:08.024Z,10993
2019-01-14T12:43:38.029Z,11173
2019-01-14T12:44:08.100Z,11277
2019-01-14T12:44:38.090Z,11383
2019-01-14T12:45:08.190Z,11537
2019-01-14T12:45:38.189Z,11810
2019-01-14T12:46:08.225Z,12283
2019-01-14T12:46:38.366Z,12973
2019-01-14T12:47:08.285Z,13387
2019-01-14T12:47:38.326Z,14050
2019-01-14T12:48:08.356Z,14377
2019-01-14T12:48:38.369Z,14360
2019-01-14T12:49:08.433Z,14273
2019-01-14T12:49:38.466Z,13827
2019-01-14T12:50:08.485Z,13363
2019-01-14T12:50:38.513Z,12903
2019-01-14T12:51:08.552Z,12743
2019-01-14T12:51:38.575Z,13090
2019-01-14T12:52:08.615Z,13983
2019-01-14T12:52:38.686Z,15217
2019-01-14T12:53:08.635Z,16310
2019-01-14T12:53:38.678Z,17663
2019-01-14T12:54:08.736Z,18027
2019-01-14T12:54:38.753Z,18110
2019-01-14T12:55:08.791Z,18573
2019-01-14T12:55:38.817Z,19240
2019-01-14T12:56:08.827Z,18903
2019-01-14T12:56:38.947Z,17740
2019-01-14T12:57:08.916Z,16913
2019-01-14T12:57:39.544Z,15670
2019-01-14T12:58:09.061Z,14230
2019-01-14T12:58:38.999Z,12860
2019-01-14T12:59:09.045Z,11363
2019-01-14T12:59:39.057Z,9610
2019-01-14T13:00:09.121Z,8313
2019-01-14T13:00:39.120Z,7707
2019-01-14T13:01:09.162Z,7533
2019-01-14T13:01:39.171Z,7427
2019-01-14T13:02:09.222Z,7407
2019-01-14T13:02:39.290Z,7420
2019-01-14T13:03:09.440Z,7520
2019-01-14T13:03:39.338Z,7643
2019-01-14T13:04:09.354Z,7993
2019-01-14T13:04:39.322Z,8980
2019-01-14T13:05:09.412Z,9273
2019-01-14T13:05:39.425Z,8987
2019-01-14T13:06:09.481Z,8800
2019-01-14T13:06:39.491Z,8310
2019-01-14T13:07:09.536Z,7657
2019-01-14T13:07:40.087Z,7030
2019-01-14T13:08:09.591Z,7143
2019-01-14T13:08:39.621Z,7970
2019-01-14T13:09:09.658Z,8560
2019-01-14T13:09:39.670Z,8747
2019-01-14T13:10:09.743Z,8727
2019-01-14T13:10:39.694Z,9123
2019-01-14T13:11:09.779Z,10593
2019-01-14T13:11:40.052Z,11680
2019-01-14T13:12:09.850Z,11767
2019-01-14T13:12:39.860Z,10920
2019-01-14T13:13:09.903Z,9853
2019-01-14T13:13:39.929Z,8180
2019-01-14T13:14:09.966Z,6517
2019-01-14T13:14:39.983Z,5757
2019-01-14T13:15:10.080Z,5527
2019-01-14T13:15:40.027Z,5193
2019-01-14T13:16:10.134Z,4763
2019-01-14T13:16:40.104Z,4510
2019-01-14T13:17:10.208Z,4230
2019-01-14T13:17:40.172Z,3917
2019-01-14T13:18:10.218Z,3590
2019-01-14T13:18:40.227Z,3427
2019-01-14T13:19:10.292Z,3573
2019-01-14T13:19:40.312Z,4080
2019-01-14T13:20:10.352Z,4580
2019-01-14T13:20:40.355Z,4697
2019-01-14T13:21:10.393Z,4727
2019-01-14T13:21:40.373Z,5167
2019-01-14T13:22:10.426Z,5260
2019-01-14T13:22:40.493Z,5007
2019-01-14T13:23:10.535Z,4987
2019-01-14T13:23:40.512Z,4913
2019-01-14T13:24:10.539Z,5290
2019-01-14T13:24:40.559Z,5400
2019-01-14T13:25:10.660Z,5470
2019-01-14T13:25:40.629Z,5613
2019-01-14T13:26:10.703Z,5870
2019-01-14T13:26:40.713Z,5920
2019-01-14T13:27:10.718Z,6093
2019-01-14T13:27:40.784Z,6783
2019-01-14T13:28:10.797Z,7520
2019-01-14T13:28:40.858Z,8243
2019-01-14T13:29:15.118Z,8683
2019-01-14T13:29:40.881Z,8747
2019-01-14T13:30:10.992Z,8493
2019-01-14T13:30:40.990Z,8153
2019-01-14T13:31:10.991Z,8010
2019-01-14T13:31:40.987Z,8190
2019-01-14T13:32:11.035Z,8117
2019-01-14T13:32:41.069Z,8290